KPPA/PPA METAR and TAF weather

Enter ICAO airport designator
Station Type Date Time Source
KPPA METAR 2020/07/09 23:35 UTC NOAA

KPPA 092335Z AUTO 32014G17KT 10SM CLR 41/07 A2985 RMK AO2 T04090072


Station Type Date Time Source
KPPA Decoded METAR 2020/07/09 23:35 UTC NOAA

Pampa, Perry Lefors Field Airport, TX, United States (KPPA) 35-36-46N 100-59-46W
Jul 09, 2020 - 07:35 PM EDT / 2020.07.09 2335 UTC
Wind: from the NW (320 degrees) at 16 MPH (14 KT) gusting to 20 MPH (17 KT):0
Visibility: 10 mile(s):0
Sky conditions: clear
Temperature: 105.6 F (40.9 C)
Dew Point: 45.0 F (7.2 C)
Relative Humidity: 13%
Pressure (altimeter): 29.85 in. Hg (1010 hPa)
ob: KPPA 092335Z AUTO 32014G17KT 10SM CLR 41/07 A2985 RMK AO2 T04090072
cycle: 23

Station Type Date Time Source
KPPA TAF UTC NOAA

Error!

Example: see airport list